createdAt,value
2022-10-11T00:00:59.265Z,11.80
2022-10-11T00:03:27.255Z,12.10
2022-10-11T00:05:55.389Z,8.68
2022-10-11T00:08:23.339Z,13.38
2022-10-11T00:11:04.624Z,11.07
2022-10-11T00:13:33.270Z,8.88
2022-10-11T00:16:01.730Z,14.23
2022-10-11T00:18:29.920Z,15.25
2022-10-11T00:21:06.769Z,10.70
2022-10-11T00:23:35.458Z,13.38
2022-10-11T00:26:07.235Z,8.38
2022-10-11T00:28:36.067Z,12.65
2022-10-11T00:31:14.409Z,14.35
2022-10-11T00:33:42.534Z,16.48
2022-10-11T00:36:14.091Z,13.77
2022-10-11T00:38:42.080Z,12.15
2022-10-11T00:41:10.290Z,10.50
2022-10-11T00:43:39.002Z,7.55
2022-10-11T00:46:30.211Z,11.63
2022-10-11T00:49:10.799Z,12.35
2022-10-11T00:51:47.772Z,9.70
2022-10-11T00:54:20.868Z,9.90
2022-10-11T00:56:54.178Z,14.77
2022-10-11T00:59:31.361Z,9.80
2022-10-11T01:01:59.251Z,16.20
2022-10-11T01:04:27.368Z,12.30
2022-10-11T01:06:56.187Z,11.13
2022-10-11T01:09:25.668Z,10.25
2022-10-11T01:11:56.893Z,9.25
2022-10-11T01:14:50.658Z,10.88
2022-10-11T01:17:52.782Z,13.27
2022-10-11T01:20:51.059Z,10.35
2022-10-11T01:23:45.401Z,14.57
2022-10-11T01:26:41.273Z,10.93
2022-10-11T01:29:44.732Z,10.48
2022-10-11T01:32:38.206Z,11.73
2022-10-11T01:35:15.430Z,11.32
2022-10-11T01:37:52.536Z,13.02
2022-10-11T01:40:43.230Z,9.70
2022-10-11T01:43:11.274Z,10.98
2022-10-11T01:45:39.770Z,11.55
2022-10-11T01:48:12.233Z,12.02
2022-10-11T01:50:51.991Z,9.02
2022-10-11T01:53:39.557Z,10.00
2022-10-11T01:56:15.312Z,13.93
2022-10-11T01:59:01.243Z,15.73
2022-10-11T02:02:14.000Z,16.58
2022-10-11T02:04:54.653Z,10.75
2022-10-11T02:08:04.544Z,11.93
2022-10-11T02:10:45.396Z,12.25
2022-10-11T02:13:18.263Z,11.52
2022-10-11T02:15:49.543Z,12.90
2022-10-11T02:18:23.906Z,10.30
2022-10-11T02:20:54.027Z,9.77
2022-10-11T02:23:35.115Z,9.20
2022-10-11T02:26:07.309Z,13.55
2022-10-11T02:28:39.995Z,12.00
2022-10-11T02:31:09.689Z,13.30
2022-10-11T02:34:04.903Z,9.63
2022-10-11T02:36:45.208Z,12.82
2022-10-11T02:39:30.186Z,10.52
2022-10-11T02:42:02.931Z,15.63
2022-10-11T02:44:38.200Z,9.77
2022-10-11T02:47:07.989Z,11.95
2022-10-11T02:49:36.179Z,10.30
2022-10-11T02:52:06.503Z,9.90
2022-10-11T02:54:34.636Z,10.85
2022-10-11T02:57:02.725Z,8.25
2022-10-11T02:59:30.566Z,13.40
2022-10-11T03:01:58.614Z,11.43
2022-10-11T03:04:26.909Z,13.20
2022-10-11T03:06:54.963Z,13.32
2022-10-11T03:09:22.866Z,9.52
2022-10-11T03:11:50.902Z,11.88
2022-10-11T03:14:18.857Z,14.55
2022-10-11T03:16:46.734Z,14.20
2022-10-11T03:19:18.977Z,13.18
2022-10-11T03:21:47.390Z,12.48
2022-10-11T03:24:15.289Z,12.93
2022-10-11T03:26:43.179Z,11.18
2022-10-11T03:29:11.431Z,18.23
2022-10-11T03:31:39.419Z,12.23
2022-10-11T03:34:07.878Z,11.50
2022-10-11T03:36:35.855Z,9.85
2022-10-11T03:39:04.436Z,12.93
2022-10-11T03:41:32.407Z,12.20
2022-10-11T03:44:00.253Z,11.90
2022-10-11T03:46:28.366Z,15.82
2022-10-11T03:48:56.345Z,13.10
2022-10-11T03:51:24.432Z,10.60
2022-10-11T03:53:52.431Z,14.40
2022-10-11T03:56:20.352Z,13.02
2022-10-11T03:58:48.321Z,13.15
2022-10-11T04:01:16.209Z,11.48
2022-10-11T04:03:44.067Z,11.85
2022-10-11T04:06:11.980Z,12.05
2022-10-11T04:08:40.404Z,12.45
2022-10-11T04:11:08.306Z,12.70
2022-10-11T04:13:37.099Z,14.90
2022-10-11T04:16:06.009Z,14.10
2022-10-11T04:18:34.357Z,13.35
2022-10-11T04:21:02.643Z,15.60
2022-10-11T04:23:34.892Z,10.55
2022-10-11T04:26:07.574Z,14.23
2022-10-11T04:28:36.328Z,13.10
2022-10-11T04:31:05.272Z,15.70
2022-10-11T04:33:33.461Z,13.60
2022-10-11T04:36:01.624Z,14.07
2022-10-11T04:38:29.945Z,13.55
2022-10-11T04:41:10.286Z,13.48
2022-10-11T04:43:38.737Z,12.63
2022-10-11T04:46:08.515Z,20.55
2022-10-11T04:48:37.197Z,13.48
2022-10-11T04:51:05.686Z,12.43
2022-10-11T04:53:33.947Z,14.52
2022-10-11T04:56:11.256Z,12.45
2022-10-11T04:58:41.342Z,14.13
2022-10-11T05:01:09.765Z,12.07
2022-10-11T05:03:38.478Z,14.82
2022-10-11T05:06:07.223Z,12.27
2022-10-11T05:08:35.643Z,13.63
2022-10-11T05:11:07.542Z,11.68
2022-10-11T05:13:36.501Z,14.50
2022-10-11T05:16:10.291Z,14.98
2022-10-11T05:18:39.959Z,11.32
2022-10-11T05:21:27.317Z,12.68
2022-10-11T05:23:57.230Z,12.93
2022-10-11T05:26:29.125Z,12.70
2022-10-11T05:28:57.296Z,13.65
2022-10-11T05:31:25.345Z,14.63
2022-10-11T05:33:53.205Z,12.32
2022-10-11T05:36:21.575Z,13.13
2022-10-11T05:38:49.500Z,20.55
2022-10-11T05:41:18.251Z,17.80
2022-10-11T05:43:46.316Z,12.73
2022-10-11T05:46:14.921Z,16.75
2022-10-11T05:48:42.949Z,10.88
2022-10-11T05:51:12.791Z,14.40
2022-10-11T05:53:41.794Z,13.87
2022-10-11T05:56:22.647Z,15.48
2022-10-11T05:58:51.612Z,14.10
2022-10-11T06:01:25.802Z,15.30
2022-10-11T06:03:54.722Z,14.25
2022-10-11T06:06:22.959Z,14.65
2022-10-11T06:08:50.864Z,11.70
2022-10-11T06:11:25.577Z,14.70
2022-10-11T06:13:55.783Z,14.57
2022-10-11T06:16:24.752Z,13.10
2022-10-11T06:18:57.317Z,12.60
2022-10-11T06:21:25.707Z,13.93
2022-10-11T06:23:59.990Z,13.27
2022-10-11T06:26:30.104Z,12.75
2022-10-11T06:28:58.974Z,14.80
2022-10-11T06:31:27.093Z,14.77
2022-10-11T06:33:55.282Z,14.98
2022-10-11T06:36:23.271Z,17.15
2022-10-11T06:38:55.511Z,15.75
2022-10-11T06:41:28.523Z,14.05
2022-10-11T06:43:57.173Z,13.82
2022-10-11T06:46:27.390Z,20.88
2022-10-11T06:48:56.730Z,19.92
2022-10-11T06:51:25.701Z,18.73
2022-10-11T06:53:57.954Z,18.55
2022-10-11T06:56:27.582Z,15.35
2022-10-11T06:58:57.296Z,20.52
2022-10-11T07:01:26.611Z,19.55
2022-10-11T07:03:57.466Z,21.30
2022-10-11T07:06:28.317Z,18.57
2022-10-11T07:08:56.422Z,19.93
2022-10-11T07:11:27.984Z,18.55
2022-10-11T07:14:07.895Z,17.98
2022-10-11T07:16:37.520Z,23.65
2022-10-11T07:19:07.919Z,17.48
2022-10-11T07:21:36.420Z,18.75
2022-10-11T07:24:04.672Z,18.10
2022-10-11T07:26:38.672Z,20.02
2022-10-11T07:29:09.985Z,16.70
2022-10-11T07:31:41.384Z,19.47
2022-10-11T07:34:10.609Z,21.80
2022-10-11T07:36:38.703Z,21.50
2022-10-11T07:39:08.357Z,20.23
2022-10-11T07:41:39.665Z,21.25
2022-10-11T07:44:09.832Z,22.92
2022-10-11T07:46:38.172Z,17.83
2022-10-11T07:49:06.329Z,22.40
2022-10-11T07:51:34.377Z,22.20
2022-10-11T07:54:07.182Z,19.77
2022-10-11T07:56:38.046Z,22.67
2022-10-11T07:59:06.593Z,25.08
2022-10-11T08:01:34.665Z,24.02
2022-10-11T08:04:04.283Z,28.67
2022-10-11T08:06:33.031Z,23.45
2022-10-11T08:09:01.665Z,23.10
2022-10-11T08:11:34.387Z,21.23
2022-10-11T08:14:06.332Z,20.80
2022-10-11T08:16:38.932Z,24.08
2022-10-11T08:19:07.893Z,26.38
2022-10-11T08:21:36.439Z,22.63
2022-10-11T08:24:05.549Z,23.95
2022-10-11T08:26:34.727Z,20.65
2022-10-11T08:29:04.072Z,17.27
2022-10-11T08:31:34.216Z,18.65
2022-10-11T08:34:06.508Z,21.10
2022-10-11T08:36:34.430Z,21.25
2022-10-11T08:39:02.762Z,20.90
2022-10-11T08:41:52.873Z,20.55
2022-10-11T08:45:10.023Z,26.05
2022-10-11T08:47:42.935Z,17.38
2022-10-11T08:50:24.298Z,19.30
2022-10-11T08:53:08.290Z,24.15
2022-10-11T08:55:49.326Z,25.42
2022-10-11T08:58:26.212Z,25.80
2022-10-11T09:00:56.641Z,21.08
2022-10-11T09:03:40.242Z,20.52
2022-10-11T09:06:35.908Z,22.27
2022-10-11T09:09:32.100Z,28.00
2022-10-11T09:12:03.563Z,20.83
2022-10-11T09:14:50.805Z,25.15
2022-10-11T09:17:35.362Z,22.15
2022-10-11T09:20:47.425Z,25.95
2022-10-11T09:23:43.813Z,24.73
2022-10-11T09:26:26.683Z,22.23
2022-10-11T09:29:17.016Z,26.00
2022-10-11T09:31:52.798Z,29.20
2022-10-11T09:34:27.066Z,23.20
2022-10-11T09:37:23.369Z,26.63
2022-10-11T09:40:16.495Z,28.88
2022-10-11T09:42:44.726Z,29.80
2022-10-11T09:45:21.280Z,26.92
2022-10-11T09:47:54.141Z,22.73
2022-10-11T09:50:26.366Z,24.60
2022-10-11T09:53:02.181Z,23.48
2022-10-11T09:56:02.171Z,23.00
2022-10-11T09:58:35.536Z,17.05
2022-10-11T10:01:14.173Z,21.40
2022-10-11T10:03:44.374Z,22.10
2022-10-11T10:06:38.894Z,21.13
2022-10-11T10:09:42.458Z,21.98
2022-10-11T10:12:18.688Z,29.15
2022-10-11T10:15:07.514Z,19.65
2022-10-11T10:17:36.587Z,19.45
2022-10-11T10:20:06.647Z,23.00
2022-10-11T10:22:37.529Z,19.70
2022-10-11T10:25:20.429Z,20.70
2022-10-11T10:28:02.963Z,21.27
2022-10-11T10:30:35.370Z,18.95
2022-10-11T10:33:11.892Z,21.20
2022-10-11T10:36:08.295Z,24.88
2022-10-11T10:39:01.550Z,20.40
2022-10-11T10:41:30.047Z,22.80
2022-10-11T10:44:00.900Z,19.83
2022-10-11T10:46:59.278Z,21.20
2022-10-11T10:49:57.336Z,21.02
2022-10-11T10:52:57.264Z,21.15
2022-10-11T10:55:44.578Z,19.17
2022-10-11T10:58:30.300Z,24.45
2022-10-11T11:01:24.770Z,23.48
2022-10-11T11:04:21.018Z,24.52
2022-10-11T11:07:21.385Z,25.95
2022-10-11T11:10:25.562Z,20.17
2022-10-11T11:13:20.261Z,19.02
2022-10-11T11:16:31.930Z,22.83
2022-10-11T11:19:45.885Z,18.10
2022-10-11T11:22:49.024Z,17.67
2022-10-11T11:25:41.354Z,25.70
2022-10-11T11:28:45.652Z,22.02
2022-10-11T11:31:32.117Z,16.15
2022-10-11T11:34:15.490Z,15.48
2022-10-11T11:36:58.597Z,17.35
2022-10-11T11:39:43.768Z,24.90
2022-10-11T11:42:23.841Z,18.65
2022-10-11T11:44:52.504Z,18.52
2022-10-11T11:47:32.116Z,24.20
2022-10-11T11:50:23.000Z,18.17
2022-10-11T11:53:00.148Z,13.07
2022-10-11T11:56:04.722Z,12.32
2022-10-11T11:59:20.040Z,16.15
2022-10-11T12:02:22.566Z,11.95
2022-10-11T12:04:52.413Z,18.58
2022-10-11T12:07:24.038Z,16.83
2022-10-11T12:12:35.664Z,13.88
2022-10-11T12:15:27.544Z,18.83
2022-10-11T12:20:38.843Z,18.05
2022-10-11T12:23:31.285Z,22.42
2022-10-11T12:26:17.307Z,16.20
2022-10-11T12:29:28.803Z,15.70
2022-10-11T12:32:01.025Z,18.30
2022-10-11T12:34:42.662Z,17.45
2022-10-11T12:37:19.829Z,15.60
2022-10-11T12:40:00.273Z,17.20
2022-10-11T12:42:34.592Z,20.42
2022-10-11T12:45:14.901Z,15.15
2022-10-11T12:47:54.509Z,24.67
2022-10-11T12:50:45.445Z,22.15
2022-10-11T12:54:25.422Z,16.63
2022-10-11T12:56:57.456Z,20.25
2022-10-11T12:59:26.829Z,16.95
2022-10-11T13:02:00.530Z,23.63
2022-10-11T13:04:32.884Z,19.17
2022-10-11T13:07:07.380Z,14.70
2022-10-11T13:09:45.304Z,15.05
2022-10-11T13:12:21.003Z,22.40
2022-10-11T13:15:07.154Z,16.67
2022-10-11T13:17:39.424Z,14.70
2022-10-11T13:20:23.923Z,14.48
2022-10-11T13:22:55.925Z,12.93
2022-10-11T13:25:28.036Z,12.40
2022-10-11T13:27:59.769Z,10.43
2022-10-11T13:33:08.829Z,11.13
2022-10-11T13:35:38.743Z,14.65
2022-10-11T13:38:09.260Z,13.02
2022-10-11T13:40:39.053Z,16.73
2022-10-11T13:43:07.939Z,13.68
2022-10-11T13:45:37.180Z,14.50
2022-10-11T13:48:13.808Z,15.57
2022-10-11T13:50:46.314Z,12.70
2022-10-11T13:53:14.366Z,11.82
2022-10-11T13:55:42.358Z,18.48
2022-10-11T13:58:22.541Z,14.20
2022-10-11T14:01:47.974Z,20.27
2022-10-11T14:04:17.601Z,19.13
2022-10-11T14:07:02.763Z,18.98
2022-10-11T14:09:37.022Z,13.20
2022-10-11T14:12:43.481Z,14.85
2022-10-11T14:15:25.386Z,12.90
2022-10-11T14:17:53.966Z,13.35
2022-10-11T14:20:30.823Z,12.25
2022-10-11T14:23:02.046Z,10.82
2022-10-11T14:25:30.273Z,14.38
2022-10-11T14:27:59.361Z,20.67
2022-10-11T14:30:28.668Z,24.27
2022-10-11T14:33:01.385Z,22.67
2022-10-11T14:35:32.623Z,31.08
2022-10-11T14:38:01.119Z,28.10
2022-10-11T14:40:31.138Z,28.55
2022-10-11T14:43:00.697Z,19.10
2022-10-11T14:45:28.631Z,22.75
2022-10-11T14:47:56.824Z,18.13
2022-10-11T14:51:06.478Z,28.25
2022-10-11T14:53:40.679Z,26.05
2022-10-11T14:56:09.262Z,25.05
2022-10-11T14:58:37.374Z,17.75
2022-10-11T15:01:05.454Z,12.65
2022-10-11T15:03:33.760Z,15.73
2022-10-11T15:06:02.719Z,14.30
2022-10-11T15:08:30.837Z,15.95
2022-10-11T15:11:00.383Z,13.60
2022-10-11T15:13:28.438Z,16.08
2022-10-11T15:15:56.504Z,15.05
2022-10-11T15:18:24.745Z,24.17
2022-10-11T15:20:55.190Z,15.45
2022-10-11T15:23:23.258Z,14.60
2022-10-11T15:25:52.372Z,22.27
2022-10-11T15:28:33.315Z,22.83
2022-10-11T15:31:01.563Z,19.77
2022-10-11T15:33:29.598Z,19.02
2022-10-11T15:35:57.549Z,19.17
2022-10-11T15:38:26.986Z,19.23
2022-10-11T15:40:55.722Z,19.15
2022-10-11T15:43:25.104Z,16.85
2022-10-11T15:45:57.580Z,14.13
2022-10-11T15:48:27.241Z,14.20
2022-10-11T15:50:55.677Z,22.10
2022-10-11T15:53:29.994Z,18.95
2022-10-11T15:56:04.023Z,23.73
2022-10-11T15:58:39.065Z,31.05
2022-10-11T16:01:14.408Z,26.40
2022-10-11T16:03:43.854Z,30.35
2022-10-11T16:06:13.426Z,36.05
2022-10-11T16:08:41.600Z,35.58
2022-10-11T16:11:12.231Z,45.00
2022-10-11T16:13:40.966Z,42.72
2022-10-11T16:16:10.437Z,50.10
2022-10-11T16:18:39.395Z,47.80
2022-10-11T16:21:11.381Z,44.45
2022-10-11T16:23:39.932Z,45.67
2022-10-11T16:26:14.096Z,36.95
2022-10-11T16:28:42.558Z,33.40
2022-10-11T16:31:14.978Z,30.52
2022-10-11T16:33:46.428Z,36.65
2022-10-11T16:36:36.172Z,32.17
2022-10-11T16:39:15.722Z,36.97
2022-10-11T16:41:43.963Z,37.63
2022-10-11T16:44:20.296Z,30.70
2022-10-11T16:46:49.156Z,58.42
2022-10-11T16:49:20.075Z,45.42
2022-10-11T16:51:51.475Z,43.55
2022-10-11T16:54:21.298Z,39.25
2022-10-11T16:56:50.333Z,35.78
2022-10-11T16:59:18.550Z,35.20
2022-10-11T17:01:47.034Z,40.45
2022-10-11T17:04:15.783Z,35.45
2022-10-11T17:06:44.524Z,39.17
2022-10-11T17:09:12.903Z,29.30
2022-10-11T17:11:41.003Z,29.27
2022-10-11T17:14:10.709Z,38.47
2022-10-11T17:16:39.185Z,34.53
2022-10-11T17:19:15.089Z,50.25
2022-10-11T17:21:43.375Z,56.10
2022-10-11T17:24:11.438Z,65.47
2022-10-11T17:26:40.187Z,132.00
2022-10-11T17:29:14.150Z,78.40
2022-10-11T17:31:48.229Z,110.72
2022-10-11T17:34:18.153Z,70.10
2022-10-11T17:36:46.599Z,57.42
2022-10-11T17:39:22.452Z,66.40
2022-10-11T17:41:51.417Z,78.80
2022-10-11T17:44:20.742Z,61.78
2022-10-11T17:46:49.687Z,61.38
2022-10-11T17:49:18.418Z,56.45
2022-10-11T17:51:46.606Z,55.40
2022-10-11T17:54:14.703Z,60.65
2022-10-11T17:56:43.247Z,71.90
2022-10-11T17:59:17.001Z,72.85
2022-10-11T18:01:45.290Z,77.00
2022-10-11T18:04:17.022Z,93.28
2022-10-11T18:06:47.213Z,91.70
2022-10-11T18:09:18.614Z,79.88
2022-10-11T18:11:47.770Z,73.13
2022-10-11T18:14:16.323Z,78.97
2022-10-11T18:16:44.642Z,78.05
2022-10-11T18:19:14.345Z,71.85
2022-10-11T18:21:42.842Z,76.75
2022-10-11T18:24:16.809Z,83.78
2022-10-11T18:26:46.566Z,69.63
2022-10-11T18:29:15.070Z,79.03
2022-10-11T18:31:43.115Z,77.43
2022-10-11T18:34:13.641Z,91.43
2022-10-11T18:36:42.053Z,99.85
2022-10-11T18:39:14.518Z,104.38
2022-10-11T18:41:44.689Z,99.68
2022-10-11T18:44:15.779Z,91.82
2022-10-11T18:46:45.333Z,74.50
2022-10-11T18:49:14.269Z,62.95
2022-10-11T18:51:45.414Z,51.90
2022-10-11T18:54:18.516Z,54.03
2022-10-11T18:56:49.961Z,54.13
2022-10-11T18:59:18.054Z,53.47
2022-10-11T19:01:46.728Z,49.25
2022-10-11T19:04:19.357Z,55.40
2022-10-11T19:06:49.381Z,55.47
2022-10-11T19:09:24.668Z,65.25
2022-10-11T19:11:55.642Z,57.88
2022-10-11T19:14:30.514Z,48.72
2022-10-11T19:16:59.237Z,44.97
2022-10-11T19:19:31.275Z,42.13
2022-10-11T19:22:01.026Z,41.95
2022-10-11T19:24:31.293Z,46.05
2022-10-11T19:27:02.529Z,39.03
2022-10-11T19:29:32.574Z,43.78
2022-10-11T19:32:03.767Z,37.45
2022-10-11T19:34:32.983Z,41.42
2022-10-11T19:37:03.346Z,44.70
2022-10-11T19:39:31.895Z,51.78
2022-10-11T19:42:01.005Z,49.53
2022-10-11T19:44:29.303Z,53.15
2022-10-11T19:47:01.419Z,42.38
2022-10-11T19:49:32.770Z,74.53
2022-10-11T19:52:01.630Z,62.88
2022-10-11T19:54:29.630Z,64.50
2022-10-11T19:56:57.762Z,51.70
2022-10-11T19:59:27.279Z,68.78
2022-10-11T20:01:55.256Z,70.05
2022-10-11T20:04:47.508Z,74.93
2022-10-11T20:07:20.826Z,77.05
2022-10-11T20:09:58.030Z,76.38
2022-10-11T20:12:29.748Z,90.43
2022-10-11T20:17:45.761Z,56.53
2022-10-11T20:20:15.122Z,62.38
2022-10-11T20:22:46.797Z,92.47
2022-10-11T20:30:16.454Z,95.82
2022-10-11T20:32:44.696Z,86.47
2022-10-11T20:35:12.848Z,64.07
2022-10-11T20:37:41.374Z,47.72
2022-10-11T20:40:10.520Z,51.80
2022-10-11T20:42:39.070Z,57.38
2022-10-11T20:45:07.683Z,74.63
2022-10-11T20:47:36.042Z,65.95
2022-10-11T20:50:04.837Z,102.53
2022-10-11T20:52:33.057Z,68.70
2022-10-11T20:55:01.510Z,60.65
2022-10-11T20:57:30.032Z,45.65
2022-10-11T21:00:01.420Z,43.33
2022-10-11T21:02:32.947Z,46.53
2022-10-11T21:05:07.090Z,52.20
2022-10-11T21:07:43.914Z,45.65
2022-10-11T21:10:11.834Z,87.20
2022-10-11T21:12:40.136Z,79.30
2022-10-11T21:15:08.633Z,61.22
2022-10-11T21:17:36.723Z,71.32
2022-10-11T21:20:06.642Z,42.97
2022-10-11T21:22:34.737Z,40.13
2022-10-11T21:25:03.389Z,46.95
2022-10-11T21:27:31.896Z,51.60
2022-10-11T21:30:00.171Z,51.70
2022-10-11T21:32:28.147Z,51.47
2022-10-11T21:34:56.707Z,42.08
2022-10-11T21:37:25.108Z,37.97
2022-10-11T21:39:53.075Z,38.85
2022-10-11T21:42:24.750Z,30.55
2022-10-11T21:44:55.345Z,47.80
2022-10-11T21:47:23.871Z,39.50
2022-10-11T21:49:51.787Z,47.00
2022-10-11T21:52:19.720Z,34.10
2022-10-11T21:54:47.892Z,38.28
2022-10-11T21:57:16.108Z,34.05
2022-10-11T21:59:44.103Z,35.20
2022-10-11T22:02:12.391Z,29.33
2022-10-11T22:04:40.508Z,45.10
2022-10-11T22:07:08.461Z,64.05
2022-10-11T22:09:36.541Z,57.83
2022-10-11T22:12:05.340Z,56.42
2022-10-11T22:14:33.444Z,57.00
2022-10-11T22:17:01.601Z,61.60
2022-10-11T22:19:29.515Z,51.60
2022-10-11T22:21:57.407Z,45.83
2022-10-11T22:24:26.613Z,43.28
2022-10-11T22:26:54.524Z,47.95
2022-10-11T22:29:23.393Z,49.00
2022-10-11T22:31:51.595Z,51.63
2022-10-11T22:34:19.474Z,60.10
2022-10-11T22:36:47.764Z,56.08
2022-10-11T22:39:15.830Z,63.63
2022-10-11T22:41:43.719Z,53.92
2022-10-11T22:44:11.740Z,60.78
2022-10-11T22:46:39.846Z,50.55
2022-10-11T22:49:07.671Z,46.97
2022-10-11T22:51:35.583Z,53.95
2022-10-11T22:54:05.443Z,61.00
2022-10-11T22:56:33.293Z,55.05
2022-10-11T22:59:01.187Z,51.05
2022-10-11T23:01:30.298Z,40.97
2022-10-11T23:03:58.322Z,54.60
2022-10-11T23:06:26.436Z,44.30
2022-10-11T23:08:54.448Z,50.30
2022-10-11T23:11:22.531Z,45.42
2022-10-11T23:13:50.483Z,50.03
2022-10-11T23:16:18.820Z,48.13
2022-10-11T23:18:46.936Z,53.08
2022-10-11T23:21:14.886Z,44.65
2022-10-11T23:23:43.018Z,43.08
2022-10-11T23:26:16.453Z,35.25
2022-10-11T23:28:45.949Z,50.88
2022-10-11T23:31:18.916Z,42.53
2022-10-11T23:33:48.254Z,50.88
2022-10-11T23:36:19.886Z,45.47
2022-10-11T23:38:59.457Z,42.88
2022-10-11T23:41:29.301Z,46.80
2022-10-11T23:43:58.839Z,40.73
2022-10-11T23:46:27.150Z,39.72
2022-10-11T23:48:55.255Z,38.47
2022-10-11T23:51:23.342Z,43.63
2022-10-11T23:53:51.499Z,42.30
2022-10-11T23:56:19.471Z,45.58
2022-10-11T23:58:47.540Z,42.28
